Camp Verde, Texas
Current Conditions -  °F | °C
As of 6:15 PM on Sunday 23 Nov 2014 (Local Time) from KERV Reporting Station
Clear Clear  
Wind Chill: 68°   Ceiling: Unl
Heat Index: 68°   Visibility: 10mi
Dew Point: 36°   Wind: 0mph
Humidity: 30%   Direction: NA
Pressure: 29.65"   Gusts: NA
Location:  29.9075°N, 98.9982°W
Report Text: KERV 240015Z AUTO 00000KT 10SM CLR 20/02 A2965 RMK AO2 T02010020
Loading
Personal Weather Stations






























Interactive Weather Map New forecast layout! Learn more

10-Day Weather Forecast

Advertisements
Track Severe Weather on mobile